Time;durP1;ratioP1;P1;durP2;ratioP2;P2;SDS_P1;SDS_P2;PMS_P1;PMS_P2;Temp;Humidity;BMP_temperature;BMP_pressure;BME280_temperature;BME280_humidity;BME280_pressure;Samples;Min_cycle;Max_cycle;Signal;HPM_P1;HPM_P2
2021/11/04 00:00:10;;;;;;;5.93;5.38;;;17.40;65.10;;;;;;5053395;28;20538;-61
2021/11/04 00:02:36;;;;;;;5.60;5.10;;;17.40;65.10;;;;;;5053592;28;20493;-60
2021/11/04 00:05:01;;;;;;;5.32;4.88;;;17.40;65.10;;;;;;5053336;28;20717;-60
2021/11/04 00:07:27;;;;;;;5.82;5.30;;;17.40;65.10;;;;;;5053856;28;20285;-60
2021/11/04 00:09:53;;;;;;;5.25;4.85;;;17.40;65.10;;;;;;5053540;28;20225;-61
2021/11/04 00:12:18;;;;;;;5.25;4.80;;;17.30;65.10;;;;;;5053130;28;20255;-63
2021/11/04 00:14:44;;;;;;;5.55;5.15;;;17.30;65.00;;;;;;5053433;28;20527;-62
2021/11/04 00:17:09;;;;;;;5.70;5.20;;;17.30;65.00;;;;;;5053492;28;20198;-61
2021/11/04 00:19:35;;;;;;;5.82;5.10;;;17.30;65.00;;;;;;5052701;28;20608;-61
2021/11/04 00:22:01;;;;;;;5.13;4.72;;;17.30;65.10;;;;;;5053752;28;20175;-61
2021/11/04 00:24:26;;;;;;;4.90;4.50;;;17.30;65.10;;;;;;5053591;28;20178;-61
2021/11/04 00:26:52;;;;;;;5.40;4.90;;;17.30;65.10;;;;;;5052447;28;20278;-61
2021/11/04 00:29:17;;;;;;;5.05;4.65;;;17.30;65.10;;;;;;5053471;28;20254;-62
2021/11/04 00:31:43;;;;;;;5.28;4.78;;;17.30;65.10;;;;;;5053023;28;20206;-60
2021/11/04 00:34:08;;;;;;;5.57;5.07;;;17.20;65.00;;;;;;5051634;28;20175;-60
2021/11/04 00:36:34;;;;;;;5.68;5.18;;;17.20;65.00;;;;;;5053065;28;20560;-60
2021/11/04 00:38:59;;;;;;;5.50;5.05;;;17.20;65.10;;;;;;5053115;28;20217;-60
2021/11/04 00:41:25;;;;;;;5.55;5.10;;;17.20;65.10;;;;;;5052617;28;20182;-59
2021/11/04 00:43:50;;;;;;;4.75;4.35;;;17.20;65.10;;;;;;5052779;28;20231;-60
2021/11/04 00:46:15;;;;;;;5.00;4.50;;;17.20;65.00;;;;;;5053060;28;20504;-60
2021/11/04 00:48:41;;;;;;;6.38;4.95;;;17.20;65.00;;;;;;5051078;28;20253;-60
2021/11/04 00:51:07;;;;;;;4.80;4.40;;;17.20;65.00;;;;;;5053002;28;20185;-60
2021/11/04 00:53:33;;;;;;;4.95;4.45;;;17.20;65.00;;;;;;5052802;28;20264;-60
2021/11/04 00:56:00;;;;;;;4.80;4.40;;;17.20;65.90;;;;;;5052675;28;20263;-61
2021/11/04 00:58:26;;;;;;;4.75;4.35;;;17.20;65.10;;;;;;5052959;28;20610;-60
2021/11/04 01:00:51;;;;;;;4.57;4.18;;;17.20;65.10;;;;;;5052784;28;20266;-60
2021/11/04 01:03:17;;;;;;;4.80;4.40;;;17.20;65.00;;;;;;5052340;28;20179;-60
2021/11/04 01:05:42;;;;;;;4.80;4.35;;;17.20;65.90;;;;;;5052757;28;20190;-59
2021/11/04 01:08:08;;;;;;;5.10;4.47;;;17.20;65.00;;;;;;5053002;28;20242;-60
2021/11/04 01:10:33;;;;;;;4.50;4.20;;;17.10;65.00;;;;;;5052193;28;20545;-60
2021/11/04 01:12:59;;;;;;;4.97;4.55;;;17.00;64.90;;;;;;5052844;28;20174;-61
2021/11/04 01:15:24;;;;;;;5.15;4.72;;;17.10;65.00;;;;;;5052177;28;20175;-61
2021/11/04 01:17:50;;;;;;;5.00;4.60;;;17.10;65.00;;;;;;5052532;28;20179;-61
2021/11/04 01:20:15;;;;;;;4.53;4.13;;;17.10;65.00;;;;;;5052581;28;20171;-61
2021/11/04 01:22:41;;;;;;;4.50;4.20;;;17.10;65.00;;;;;;5051727;28;20179;-60
2021/11/04 01:25:07;;;;;;;5.05;4.65;;;17.10;64.90;;;;;;5052527;28;20179;-60
2021/11/04 01:27:32;;;;;;;4.70;4.30;;;17.10;65.00;;;;;;5052294;28;20218;-61
2021/11/04 01:29:58;;;;;;;4.93;4.53;;;17.10;65.00;;;;;;5051728;28;20630;-60
2021/11/04 01:32:23;;;;;;;4.30;4.00;;;17.10;65.00;;;;;;5052311;28;20252;-61
2021/11/04 01:34:49;;;;;;;4.80;4.40;;;17.10;65.00;;;;;;5052240;28;20656;-60
2021/11/04 01:37:14;;;;;;;4.47;4.10;;;17.10;65.00;;;;;;5051506;28;20197;-60
2021/11/04 01:39:40;;;;;;;4.75;4.35;;;17.00;64.90;;;;;;5051855;28;20638;-59
2021/11/04 01:42:05;;;;;;;4.85;4.35;;;17.00;64.90;;;;;;5052440;28;20186;-61
2021/11/04 01:44:31;;;;;;;4.38;4.07;;;17.00;64.90;;;;;;5050887;28;20230;-60
2021/11/04 01:46:56;;;;;;;3.90;3.60;;;17.00;64.90;;;;;;5052388;28;20178;-60
2021/11/04 01:49:22;;;;;;;4.22;3.85;;;17.00;64.90;;;;;;5052439;28;20178;-61
2021/11/04 01:51:47;;;;;;;4.43;4.05;;;17.00;64.90;;;;;;5051194;28;21107;-60
2021/11/04 01:54:13;;;;;;;3.63;3.38;;;17.00;64.90;;;;;;5052147;28;20171;-61
2021/11/04 01:56:39;;;;;;;4.47;4.18;;;17.00;64.90;;;;;;5051977;28;20206;-61
2021/11/04 01:59:05;;;;;;;4.30;3.90;;;17.00;64.80;;;;;;5051318;28;20209;-60
2021/11/04 02:01:31;;;;;;;4.70;4.30;;;17.00;64.80;;;;;;5051712;28;20175;-60
2021/11/04 02:04:30;;;;;;;4.45;4.05;;;17.00;64.90;;;;;;5052069;28;20175;-60
2021/11/04 02:07:06;;;;;;;3.85;3.55;;;17.00;64.90;;;;;;5050572;28;20694;-60
2021/11/04 02:09:34;;;;;;;4.05;3.70;;;16.90;64.80;;;;;;5050575;28;20522;-60
2021/11/04 02:12:04;;;;;;;4.85;4.00;;;16.90;64.80;;;;;;5050107;28;20175;-61
2021/11/04 02:14:32;;;;;;;4.20;3.90;;;16.90;64.80;;;;;;5050474;28;20171;-62
2021/11/04 02:16:58;;;;;;;3.92;3.63;;;16.90;64.80;;;;;;5052086;28;20186;-60
2021/11/04 02:19:25;;;;;;;3.97;3.67;;;16.90;64.80;;;;;;5051157;28;20179;-60
2021/11/04 02:21:55;;;;;;;4.05;3.75;;;16.90;64.80;;;;;;5051602;28;20183;-60
2021/11/04 02:24:25;;;;;;;4.28;3.88;;;16.90;64.90;;;;;;5050585;28;20171;-61
2021/11/04 02:26:51;;;;;;;4.10;3.80;;;16.90;64.80;;;;;;5049586;28;20657;-60
2021/11/04 02:29:17;;;;;;;3.55;3.35;;;16.90;64.80;;;;;;5050491;28;20179;-60
2021/11/04 02:31:43;;;;;;;3.95;3.65;;;16.90;64.80;;;;;;5050199;28;20210;-60
2021/11/04 02:34:08;;;;;;;3.85;3.55;;;16.90;64.80;;;;;;5049812;28;20573;-60
2021/11/04 02:36:34;;;;;;;3.38;3.15;;;16.90;64.80;;;;;;5049941;28;20236;-60
2021/11/04 02:38:59;;;;;;;3.83;3.53;;;16.80;64.80;;;;;;5050615;28;20175;-60
2021/11/04 02:41:25;;;;;;;3.97;3.58;;;16.80;64.90;;;;;;5049894;28;20274;-61
2021/11/04 02:43:50;;;;;;;3.58;3.28;;;16.90;64.90;;;;;;5050040;28;20222;-60
2021/11/04 02:46:16;;;;;;;3.72;3.42;;;16.80;64.80;;;;;;5051548;28;20190;-61
2021/11/04 02:48:41;;;;;;;4.18;3.42;;;16.80;64.80;;;;;;5049350;28;20235;-61
2021/11/04 02:51:07;;;;;;;3.58;3.28;;;16.90;64.90;;;;;;5051389;28;20174;-60
2021/11/04 02:53:32;;;;;;;3.45;3.15;;;16.80;64.80;;;;;;5051136;28;20187;-60
2021/11/04 02:55:58;;;;;;;3.92;3.63;;;16.80;64.80;;;;;;5050727;28;20589;-61
2021/11/04 02:58:24;;;;;;;3.30;3.10;;;16.80;64.80;;;;;;5051392;28;20626;-60
2021/11/04 03:00:55;;;;;;;3.63;3.33;;;16.80;64.80;;;;;;5050587;28;20222;-61
2021/11/04 03:03:21;;;;;;;3.00;2.80;;;16.80;64.80;;;;;;5051477;28;20175;-60
2021/11/04 03:05:46;;;;;;;3.28;2.97;;;16.80;64.80;;;;;;5051063;28;20175;-60
2021/11/04 03:08:12;;;;;;;3.63;3.33;;;16.80;64.80;;;;;;5050743;28;20211;-60
2021/11/04 03:10:37;;;;;;;3.53;3.33;;;16.80;64.80;;;;;;5051060;28;20178;-60
2021/11/04 03:13:04;;;;;;;4.57;3.28;;;16.80;64.80;;;;;;5053588;28;20183;-61
2021/11/04 03:15:32;;;;;;;3.08;2.88;;;16.80;64.80;;;;;;5054148;28;20186;-61
2021/11/04 03:17:58;;;;;;;3.50;3.20;;;16.70;64.80;;;;;;5053985;28;20210;-62
2021/11/04 03:20:24;;;;;;;3.85;3.55;;;16.80;64.80;;;;;;5037272;28;20229;-61
2021/11/04 03:22:49;;;;;;;3.70;3.40;;;16.70;64.70;;;;;;5053878;28;20183;-61
2021/11/04 03:25:17;;;;;;;3.42;3.22;;;16.70;64.70;;;;;;5055143;28;20170;-61
2021/11/04 03:27:43;;;;;;;4.28;3.20;;;16.80;64.80;;;;;;5054591;28;20211;-61
2021/11/04 03:30:10;;;;;;;3.58;3.28;;;16.70;64.70;;;;;;5052902;28;20174;-61
2021/11/04 03:32:36;;;;;;;3.30;3.10;;;16.70;64.80;;;;;;5054677;28;20183;-60
2021/11/04 03:35:01;;;;;;;3.25;3.00;;;16.70;64.80;;;;;;5053456;28;20229;-60
2021/11/04 03:37:27;;;;;;;3.05;2.85;;;16.70;64.70;;;;;;5052739;28;20673;-61
2021/11/04 03:39:53;;;;;;;3.50;3.20;;;16.70;64.80;;;;;;5054568;28;20198;-61
2021/11/04 03:42:18;;;;;;;3.03;2.83;;;16.70;64.80;;;;;;5053436;28;20244;-61
2021/11/04 03:44:44;;;;;;;3.08;2.88;;;16.70;64.80;;;;;;5052168;28;20310;-61
2021/11/04 03:47:10;;;;;;;3.47;3.20;;;16.70;64.70;;;;;;5054425;28;20290;-60
2021/11/04 03:49:35;;;;;;;3.08;2.88;;;16.70;64.70;;;;;;5052870;28;20175;-61
2021/11/04 03:52:02;;;;;;;2.92;2.72;;;16.70;64.70;;;;;;5036098;28;20215;-61
2021/11/04 03:54:27;;;;;;;3.10;2.90;;;16.70;64.80;;;;;;5054546;28;20517;-61
2021/11/04 03:56:54;;;;;;;3.17;2.97;;;16.60;64.70;;;;;;5054076;28;20168;-62
2021/11/04 03:59:23;;;;;;;3.22;2.92;;;16.60;64.60;;;;;;5053528;28;20178;-61
2021/11/04 04:01:49;;;;;;;2.90;2.70;;;16.60;64.70;;;;;;5053814;28;20201;-59
2021/11/04 04:04:14;;;;;;;2.65;2.45;;;16.60;64.60;;;;;;5053321;28;20175;-59
2021/11/04 04:06:40;;;;;;;2.92;2.72;;;16.60;64.70;;;;;;5054013;28;20171;-59
2021/11/04 04:09:06;;;;;;;2.95;2.75;;;16.60;64.60;;;;;;5054240;28;20214;-61
2021/11/04 04:11:32;;;;;;;2.80;2.60;;;16.60;64.60;;;;;;5051988;28;20225;-62
2021/11/04 04:13:57;;;;;;;3.08;2.88;;;16.60;64.70;;;;;;5054251;28;20182;-62
2021/11/04 04:16:23;;;;;;;3.20;3.00;;;16.60;64.60;;;;;;5054000;28;20653;-62
2021/11/04 04:18:49;;;;;;;3.25;3.05;;;16.60;64.60;;;;;;5052958;28;20179;-60
2021/11/04 04:21:14;;;;;;;3.33;3.13;;;16.60;64.60;;;;;;5054128;28;20203;-60
2021/11/04 04:23:40;;;;;;;3.10;2.90;;;16.60;64.60;;;;;;5053794;28;20209;-60
2021/11/04 04:26:06;;;;;;;2.90;2.70;;;16.60;64.60;;;;;;5053313;28;20178;-61
2021/11/04 04:28:31;;;;;;;3.22;3.03;;;16.60;64.60;;;;;;5053440;28;20222;-62
2021/11/04 04:30:57;;;;;;;2.80;2.60;;;16.60;64.60;;;;;;5053905;28;20529;-60
2021/11/04 04:33:23;;;;;;;3.42;3.13;;;16.60;64.70;;;;;;5052995;28;20270;-61
2021/11/04 04:35:49;;;;;;;2.85;2.65;;;16.60;64.60;;;;;;5053368;28;20220;-61
2021/11/04 04:38:14;;;;;;;3.10;2.90;;;16.60;64.60;;;;;;5053807;28;20549;-61
2021/11/04 04:40:40;;;;;;;3.00;2.80;;;16.60;64.60;;;;;;5052618;28;20171;-60
2021/11/04 04:43:05;;;;;;;3.05;2.75;;;16.60;64.60;;;;;;5053653;28;20171;-61
2021/11/04 04:45:31;;;;;;;4.40;2.80;;;16.50;64.50;;;;;;5052994;28;20222;-60
2021/11/04 04:47:56;;;;;;;3.10;2.90;;;16.50;64.50;;;;;;5052559;28;20211;-61
2021/11/04 04:50:22;;;;;;;2.78;2.58;;;16.50;64.50;;;;;;5053409;28;20540;-61
2021/11/04 04:52:47;;;;;;;2.80;2.60;;;16.50;64.60;;;;;;5053307;28;20210;-61
2021/11/04 04:55:13;;;;;;;2.90;2.70;;;16.50;64.60;;;;;;5052639;28;20171;-62
2021/11/04 04:57:39;;;;;;;2.80;2.60;;;16.50;64.60;;;;;;5052936;28;20265;-61
2021/11/04 05:00:11;;;;;;;2.85;2.65;;;16.50;64.60;;;;;;5053085;28;20175;-61
2021/11/04 05:02:36;;;;;;;2.95;2.75;;;16.50;64.60;;;;;;5052230;28;20187;-59
2021/11/04 05:05:02;;;;;;;2.75;2.55;;;16.50;64.60;;;;;;5053242;28;20178;-60
2021/11/04 05:07:27;;;;;;;2.95;2.75;;;16.50;64.60;;;;;;5052572;28;20226;-59
2021/11/04 05:09:53;;;;;;;2.75;2.55;;;16.50;64.60;;;;;;5052866;28;20179;-59
2021/11/04 05:12:19;;;;;;;2.88;2.67;;;16.50;64.60;;;;;;5052976;28;20615;-61
2021/11/04 05:14:44;;;;;;;3.20;3.00;;;16.50;64.60;;;;;;5052017;28;20179;-62
2021/11/04 05:17:10;;;;;;;3.13;2.88;;;16.50;64.60;;;;;;5052789;28;20177;-61
2021/11/04 05:19:35;;;;;;;2.83;2.63;;;16.50;64.60;;;;;;5052710;28;20203;-61
2021/11/04 05:22:01;;;;;;;2.80;2.60;;;16.50;64.60;;;;;;5052169;28;20175;-61
2021/11/04 05:24:28;;;;;;;2.90;2.70;;;16.50;64.60;;;;;;5052623;28;20272;-61
2021/11/04 05:26:54;;;;;;;2.88;2.67;;;16.40;64.60;;;;;;5052578;28;20176;-60
2021/11/04 05:29:19;;;;;;;3.20;2.90;;;16.40;64.50;;;;;;5051943;28;20244;-60
2021/11/04 05:31:45;;;;;;;2.70;2.50;;;16.40;64.50;;;;;;5052097;28;20458;-60
2021/11/04 05:34:10;;;;;;;2.78;2.58;;;16.50;64.70;;;;;;5052380;28;20179;-60
2021/11/04 05:36:36;;;;;;;2.65;2.45;;;16.40;64.60;;;;;;5051105;28;20648;-60
2021/11/04 05:39:01;;;;;;;3.10;2.67;;;16.40;64.60;;;;;;5052378;28;20183;-60
2021/11/04 05:41:27;;;;;;;2.72;2.53;;;16.40;64.60;;;;;;5052483;28;20233;-60
2021/11/04 05:43:52;;;;;;;3.35;3.15;;;16.40;64.60;;;;;;5051210;28;20258;-61
2021/11/04 05:46:18;;;;;;;2.72;2.53;;;16.40;64.60;;;;;;5052296;28;20649;-60
2021/11/04 05:48:43;;;;;;;2.92;2.72;;;16.40;64.60;;;;;;5052096;28;20210;-59
2021/11/04 05:51:09;;;;;;;2.78;2.58;;;16.40;64.60;;;;;;5051601;28;20171;-59
2021/11/04 05:53:35;;;;;;;2.85;2.65;;;16.40;64.60;;;;;;5051996;28;20167;-61
2021/11/04 05:56:02;;;;;;;2.80;2.60;;;16.40;64.60;;;;;;5052176;28;20183;-61
2021/11/04 05:58:27;;;;;;;2.60;2.40;;;16.40;64.60;;;;;;5051538;28;20175;-61
2021/11/04 06:00:52;;;;;;;2.92;2.72;;;16.40;64.60;;;;;;5051681;28;20599;-60
2021/11/04 06:03:18;;;;;;;2.55;2.35;;;16.40;64.70;;;;;;5052230;28;20171;-61
2021/11/04 06:05:44;;;;;;;2.90;2.63;;;16.40;64.80;;;;;;5051116;28;20217;-59
2021/11/04 06:08:09;;;;;;;2.72;2.53;;;16.50;65.00;;;;;;5052014;28;20214;-59
2021/11/04 06:10:35;;;;;;;2.45;2.28;;;16.60;64.80;;;;;;5051391;28;20224;-61
2021/11/04 06:13:01;;;;;;;2.78;2.58;;;16.80;64.70;;;;;;5051570;28;20163;-61
2021/11/04 06:15:26;;;;;;;2.95;2.67;;;17.00;64.20;;;;;;5051683;28;20523;-60
2021/11/04 06:17:52;;;;;;;2.90;2.70;;;17.30;63.60;;;;;;5050963;28;20672;-61
2021/11/04 06:20:17;;;;;;;2.03;1.92;;;17.60;63.90;;;;;;5051926;28;20183;-61
2021/11/04 06:22:43;;;;;;;2.45;2.25;;;17.90;62.40;;;;;;5051636;28;20194;-60
2021/11/04 06:25:09;;;;;;;2.40;2.20;;;18.30;61.20;;;;;;5050611;28;20217;-60
2021/11/04 06:27:35;;;;;;;2.22;2.13;;;18.60;60.20;;;;;;5051229;28;20221;-60
2021/11/04 06:30:02;;;;;;;2.63;2.42;;;18.70;59.80;;;;;;5051531;28;20175;-60
2021/11/04 06:32:27;;;;;;;2.30;2.10;;;18.80;59.50;;;;;;5051029;28;20205;-60
2021/11/04 06:34:53;;;;;;;2.05;1.95;;;18.90;59.30;;;;;;5051187;28;20179;-59
2021/11/04 06:37:18;;;;;;;2.38;2.17;;;19.10;59.20;;;;;;5051778;28;20175;-60
2021/11/04 06:39:44;;;;;;;2.28;2.17;;;19.10;59.00;;;;;;5050556;28;20190;-60
2021/11/04 06:42:10;;;;;;;2.33;2.20;;;19.20;59.00;;;;;;5051535;28;20695;-61
2021/11/04 06:44:36;;;;;;;2.20;2.10;;;19.20;59.10;;;;;;5050920;28;20227;-61
2021/11/04 06:47:02;;;;;;;2.00;1.90;;;19.10;59.10;;;;;;5053066;28;20649;-59
2021/11/04 06:49:31;;;;;;;2.10;2.00;;;19.10;59.10;;;;;;5055627;28;20270;-60
2021/11/04 06:51:57;;;;;;;1.95;1.85;;;19.10;59.20;;;;;;5054242;28;20171;-60
2021/11/04 06:54:24;;;;;;;2.35;2.20;;;19.10;59.40;;;;;;5053770;28;20182;-61
2021/11/04 06:56:49;;;;;;;2.33;2.15;;;18.90;59.50;;;;;;5053806;28;20233;-60
2021/11/04 06:59:20;;;;;;;2.40;2.20;;;18.90;59.70;;;;;;5037517;28;20171;-61
2021/11/04 07:01:57;;;;;;;1.80;1.70;;;18.70;59.90;;;;;;5054679;28;20276;-62
2021/11/04 07:04:28;;;;;;;1.92;1.83;;;18.70;60.20;;;;;;5055495;28;20171;-60
2021/11/04 07:07:09;;;;;;;2.05;1.95;;;18.60;60.40;;;;;;5054672;28;20193;-59
2021/11/04 07:09:37;;;;;;;2.45;2.25;;;18.60;60.70;;;;;;5054819;28;20191;-60
2021/11/04 07:12:03;;;;;;;2.00;1.90;;;18.50;60.80;;;;;;5055295;28;20286;-61
2021/11/04 07:14:30;;;;;;;2.30;2.10;;;18.50;60.80;;;;;;5054461;28;20181;-60
2021/11/04 07:16:56;;;;;;;2.03;1.90;;;18.50;60.60;;;;;;5055545;28;20250;-60
2021/11/04 07:19:23;;;;;;;2.05;1.90;;;18.60;60.60;;;;;;5055154;28;20529;-60
2021/11/04 07:22:30;;;;;;;2.35;2.15;;;18.60;60.60;;;;;;5053990;28;20189;-60
2021/11/04 07:25:11;;;;;;;2.25;2.05;;;18.60;60.40;;;;;;5027427;28;20187;-59
2021/11/04 07:27:57;;;;;;;2.13;2.03;;;18.60;60.50;;;;;;5054607;28;20238;-60
2021/11/04 07:30:23;;;;;;;2.20;2.10;;;18.60;60.60;;;;;;5054585;28;20211;-61
2021/11/04 07:32:49;;;;;;;2.03;1.92;;;18.50;61.00;;;;;;5054764;28;20257;-60
2021/11/04 07:35:19;;;;;;;2.40;2.30;;;18.40;61.20;;;;;;5054123;28;20258;-60
2021/11/04 07:37:45;;;;;;;2.45;2.30;;;18.30;61.40;;;;;;5054526;28;20175;-60
2021/11/04 07:40:12;;;;;;;2.50;2.30;;;18.20;61.50;;;;;;5054683;28;20241;-60
2021/11/04 07:42:37;;;;;;;2.25;2.15;;;18.20;61.80;;;;;;5052474;28;20516;-61
2021/11/04 07:45:04;;;;;;;2.33;2.20;;;18.10;61.80;;;;;;5054336;28;20693;-60
2021/11/04 07:47:29;;;;;;;2.00;1.90;;;18.10;61.90;;;;;;5054290;28;20221;-59
2021/11/04 07:49:55;;;;;;;2.25;2.10;;;18.20;61.80;;;;;;5053624;28;20266;-61
2021/11/04 07:52:20;;;;;;;2.30;2.10;;;18.20;61.70;;;;;;5054729;28;20171;-61
2021/11/04 07:54:46;;;;;;;3.10;2.42;;;18.20;61.60;;;;;;5054233;28;20205;-61
2021/11/04 07:57:11;;;;;;;2.20;2.00;;;18.30;61.60;;;;;;5053686;28;20531;-61
2021/11/04 07:59:37;;;;;;;2.28;2.13;;;18.40;61.40;;;;;;5052101;28;20674;-69
2021/11/04 08:02:03;;;;;;;2.58;2.38;;;18.40;61.20;;;;;;5054476;28;20197;-67
2021/11/04 08:04:30;;;;;;;3.22;2.25;;;18.40;61.30;;;;;;5053325;28;20206;-67
2021/11/04 08:06:56;;;;;;;2.97;2.70;;;18.40;61.30;;;;;;5054521;28;20211;-62
2021/11/04 08:09:21;;;;;;;3.47;2.35;;;18.40;61.40;;;;;;5054131;28;20730;-65
2021/11/04 08:11:47;;;;;;;3.40;2.63;;;18.30;61.60;;;;;;5053141;28;20254;-66
2021/11/04 08:14:13;;;;;;;3.03;2.60;;;18.30;62.00;;;;;;5053947;28;20295;-70
2021/11/04 08:16:38;;;;;;;3.65;2.90;;;18.20;62.30;;;;;;5053806;28;20532;-70
2021/11/04 08:19:04;;;;;;;4.05;3.25;;;18.20;62.50;;;;;;5053456;28;20175;-69
2021/11/04 08:21:29;;;;;;;4.70;3.10;;;18.10;62.60;;;;;;5053735;28;20170;-69
2021/11/04 08:23:55;;;;;;;2.92;2.72;;;18.10;62.60;;;;;;5053836;28;20221;-70
2021/11/04 08:26:20;;;;;;;3.92;3.22;;;18.20;62.70;;;;;;5053200;28;20176;-64
2021/11/04 08:28:46;;;;;;;3.67;3.03;;;18.20;62.60;;;;;;5053244;28;20207;-67
2021/11/04 08:31:11;;;;;;;5.35;3.08;;;18.20;62.50;;;;;;5053642;28;20577;-66
2021/11/04 08:33:37;;;;;;;3.15;2.90;;;18.30;62.40;;;;;;5052834;28;20265;-67
2021/11/04 08:36:02;;;;;;;5.07;3.35;;;18.30;62.30;;;;;;5053439;28;20179;-69
2021/11/04 08:38:28;;;;;;;4.55;2.92;;;18.40;62.10;;;;;;5052588;28;20198;-67
2021/11/04 08:40:53;;;;;;;3.35;2.95;;;18.40;62.20;;;;;;5053369;28;20186;-68
2021/11/04 08:43:19;;;;;;;4.03;3.20;;;18.40;62.20;;;;;;5053255;28;20183;-67
2021/11/04 08:45:44;;;;;;;3.70;2.78;;;18.30;62.40;;;;;;5052101;28;20226;-65
2021/11/04 08:48:10;;;;;;;3.67;2.72;;;18.30;62.60;;;;;;5053218;28;20210;-63
2021/11/04 08:50:36;;;;;;;4.65;2.72;;;18.30;62.60;;;;;;5053308;28;20175;-65
2021/11/04 08:53:02;;;;;;;4.32;2.95;;;18.40;62.80;;;;;;5052433;28;20270;-64
2021/11/04 08:55:29;;;;;;;5.97;2.55;;;18.40;62.60;;;;;;5053015;28;20175;-65
2021/11/04 08:57:55;;;;;;;3.60;2.40;;;18.50;62.60;;;;;;5053135;28;20545;-65
2021/11/04 09:00:20;;;;;;;4.00;2.63;;;18.50;62.40;;;;;;5052581;28;20610;-65
2021/11/04 09:02:46;;;;;;;2.67;2.47;;;18.60;62.30;;;;;;5052636;28;20620;-64
2021/11/04 09:05:12;;;;;;;2.95;2.38;;;18.50;62.40;;;;;;5053115;28;20178;-64
2021/11/04 09:07:38;;;;;;;3.17;2.88;;;18.50;62.50;;;;;;5051850;28;20203;-65
2021/11/04 09:10:06;;;;;;;3.03;2.70;;;18.50;62.60;;;;;;5051773;28;20182;-64
2021/11/04 09:12:31;;;;;;;3.90;2.63;;;18.50;62.80;;;;;;5052504;28;20528;-64
2021/11/04 09:14:57;;;;;;;4.22;2.53;;;18.40;62.80;;;;;;5051954;28;20179;-64
2021/11/04 09:17:22;;;;;;;4.10;2.83;;;18.40;63.00;;;;;;5053060;28;20179;-61
2021/11/04 09:19:48;;;;;;;4.53;2.40;;;18.40;63.00;;;;;;5052629;28;20186;-61
2021/11/04 09:22:13;;;;;;;4.25;2.92;;;18.30;62.90;;;;;;5051812;28;20187;-61
2021/11/04 09:24:39;;;;;;;3.53;3.00;;;18.30;62.90;;;;;;5052189;28;20645;-61
2021/11/04 09:27:05;;;;;;;4.65;3.20;;;18.30;62.60;;;;;;5051943;28;20264;-62
2021/11/04 09:29:31;;;;;;;3.88;3.22;;;18.30;62.50;;;;;;5051799;28;20228;-62
2021/11/04 09:31:56;;;;;;;3.28;2.85;;;18.20;62.20;;;;;;5052717;28;20589;-62
2021/11/04 09:34:22;;;;;;;3.17;2.80;;;18.20;62.30;;;;;;5052450;28;20597;-61
2021/11/04 09:36:48;;;;;;;3.65;3.35;;;18.10;62.20;;;;;;5051377;28;20637;-62
2021/11/04 09:39:13;;;;;;;4.32;3.92;;;18.10;62.30;;;;;;5051780;28;20618;-61
2021/11/04 09:41:40;;;;;;;3.70;3.40;;;18.10;62.30;;;;;;5058751;28;20210;-61
2021/11/04 09:44:05;;;;;;;3.88;3.22;;;18.00;62.20;;;;;;5060358;28;20214;-61
2021/11/04 09:46:34;;;;;;;3.30;3.00;;;18.10;62.20;;;;;;5053742;28;20174;-61
2021/11/04 09:48:59;;;;;;;3.58;3.15;;;18.10;62.00;;;;;;5055155;28;20253;-61
2021/11/04 09:51:25;;;;;;;3.35;3.05;;;18.10;61.90;;;;;;5052194;28;20203;-62
2021/11/04 09:53:51;;;;;;;4.43;3.13;;;18.10;61.80;;;;;;5051558;28;20273;-62
2021/11/04 09:56:17;;;;;;;3.70;3.22;;;18.10;61.80;;;;;;5055606;28;20174;-62
2021/11/04 09:58:42;;;;;;;5.35;3.72;;;18.10;61.80;;;;;;5071797;28;20265;-62
2021/11/04 10:01:24;;;;;;;3.42;3.10;;;18.00;61.60;;;;;;5071892;28;20181;-62
2021/11/04 10:03:50;;;;;;;3.25;2.80;;;18.10;61.60;;;;;;5070875;28;20659;-61
2021/11/04 10:06:22;;;;;;;3.53;3.22;;;18.00;61.80;;;;;;5070550;28;20170;-61
2021/11/04 10:08:50;;;;;;;3.70;3.40;;;18.00;61.90;;;;;;5071271;28;20640;-62
2021/11/04 10:11:16;;;;;;;3.17;2.88;;;18.00;61.80;;;;;;5053889;28;20191;-64
2021/11/04 10:13:42;;;;;;;4.03;3.38;;;18.10;61.80;;;;;;5051332;28;20171;-65
2021/11/04 10:16:08;;;;;;;3.60;3.05;;;18.10;61.80;;;;;;5051562;28;20175;-64
2021/11/04 10:18:42;;;;;;;6.75;3.42;;;18.10;61.60;;;;;;5050624;28;20182;-64
2021/11/04 10:21:07;;;;;;;4.88;3.03;;;18.20;61.80;;;;;;5050911;28;20279;-64
2021/11/04 10:23:40;;;;;;;4.97;3.30;;;18.20;61.50;;;;;;5051575;28;20566;-63
2021/11/04 10:26:10;;;;;;;3.50;3.20;;;18.30;61.50;;;;;;5057347;28;20174;-64
2021/11/04 10:28:36;;;;;;;3.78;3.28;;;18.20;61.50;;;;;;5062964;28;20206;-65
2021/11/04 10:31:02;;;;;;;4.32;3.10;;;18.20;61.50;;;;;;5050832;28;20179;-65
2021/11/04 10:33:30;;;;;;;4.10;2.80;;;18.20;61.60;;;;;;5064554;28;20224;-65
2021/11/04 10:36:03;;;;;;;3.30;2.70;;;18.20;61.70;;;;;;5071808;28;20249;-66
2021/11/04 10:38:39;;;;;;;3.17;2.88;;;18.20;61.60;;;;;;5070440;28;20251;-65
2021/11/04 10:41:06;;;;;;;5.03;2.55;;;18.20;61.40;;;;;;5065792;28;20175;-64
2021/11/04 10:43:33;;;;;;;3.00;2.80;;;18.30;61.40;;;;;;5068758;28;20186;-64
2021/11/04 10:46:12;;;;;;;4.22;3.00;;;18.30;61.20;;;;;;5070654;28;20170;-64
2021/11/04 10:48:42;;;;;;;3.35;2.90;;;18.40;61.30;;;;;;5071305;28;20206;-68
2021/11/04 10:51:12;;;;;;;3.20;2.83;;;18.30;61.30;;;;;;5071529;28;20186;-65
2021/11/04 10:53:38;;;;;;;4.28;3.00;;;18.30;61.30;;;;;;5070138;28;20178;-63
2021/11/04 10:56:15;;;;;;;3.35;2.72;;;18.20;61.50;;;;;;5071085;28;20178;-63
2021/11/04 10:58:40;;;;;;;7.15;2.92;;;18.20;61.50;;;;;;5070762;28;20174;-64
2021/11/04 11:01:06;;;;;;;4.63;3.25;;;18.10;61.60;;;;;;5070296;28;20170;-66
2021/11/04 11:03:32;;;;;;;3.20;2.95;;;18.10;62.20;;;;;;5069660;28;20175;-66
2021/11/04 11:05:59;;;;;;;3.70;3.20;;;18.10;62.10;;;;;;5071069;28;20170;-65
2021/11/04 11:08:25;;;;;;;4.28;3.17;;;18.20;62.00;;;;;;5070522;28;20214;-64
2021/11/04 11:10:51;;;;;;;3.22;2.90;;;18.30;62.00;;;;;;5070795;28;20194;-65
2021/11/04 11:13:17;;;;;;;4.97;2.97;;;18.30;61.70;;;;;;5069980;28;20209;-65
2021/11/04 11:15:42;;;;;;;6.18;3.00;;;18.30;61.80;;;;;;5070738;28;20219;-64
2021/11/04 11:18:09;;;;;;;5.45;2.55;;;18.30;61.70;;;;;;5070795;28;20591;-64
2021/11/04 11:20:44;;;;;;;3.53;2.72;;;18.30;61.70;;;;;;5069664;28;20179;-65
2021/11/04 11:23:14;;;;;;;3.80;2.70;;;18.30;61.80;;;;;;5069632;28;20182;-64
2021/11/04 11:25:40;;;;;;;9.05;3.47;;;18.20;62.00;;;;;;5070355;28;20175;-64
2021/11/04 11:28:05;;;;;;;6.40;3.20;;;18.20;62.20;;;;;;5051861;28;20636;-66
2021/11/04 11:30:32;;;;;;;3.60;2.60;;;18.20;62.40;;;;;;5052615;28;20175;-68
2021/11/04 11:33:30;;;;;;;6.65;3.15;;;18.30;62.40;;;;;;5071120;28;20205;-68
2021/11/04 11:36:12;;;;;;;6.00;2.92;;;18.20;62.20;;;;;;5029304;28;20269;-70
2021/11/04 11:38:56;;;;;;;4.30;2.72;;;18.30;62.20;;;;;;5074155;28;20261;-70
2021/11/04 11:41:22;;;;;;;6.47;2.92;;;18.30;62.10;;;;;;5073702;28;20231;-65
2021/11/04 11:43:55;;;;;;;8.05;3.13;;;18.20;62.20;;;;;;5073972;28;20249;-65
2021/11/04 11:46:20;;;;;;;9.85;3.00;;;18.30;62.30;;;;;;5074347;28;20206;-65
2021/11/04 11:49:06;;;;;;;7.07;3.08;;;18.20;62.30;;;;;;5073224;28;20226;-65
2021/11/04 11:51:41;;;;;;;5.85;3.08;;;18.20;62.40;;;;;;5060056;28;20182;-65
2021/11/04 11:54:07;;;;;;;3.80;2.83;;;18.20;62.50;;;;;;5074330;28;20182;-65
2021/11/04 11:56:34;;;;;;;8.82;2.80;;;18.10;62.50;;;;;;5071833;28;20182;-66
2021/11/04 11:59:18;;;;;;;3.15;2.28;;;18.10;62.70;;;;;;5074118;28;20183;-65
2021/11/04 12:01:45;;;;;;;3.00;2.70;;;18.10;62.80;;;;;;5073895;28;20187;-65
2021/11/04 12:04:27;;;;;;;4.40;2.90;;;18.10;62.80;;;;;;5073395;28;20183;-65
2021/11/04 12:06:58;;;;;;;3.92;2.80;;;18.10;62.70;;;;;;5073595;28;20174;-64
2021/11/04 12:09:37;;;;;;;3.60;2.60;;;18.10;62.70;;;;;;5073097;28;20221;-64
2021/11/04 12:12:03;;;;;;;4.35;2.83;;;18.10;62.70;;;;;;5073922;28;20513;-65
2021/11/04 12:14:33;;;;;;;5.72;2.75;;;18.10;62.80;;;;;;5073986;28;20224;-66
2021/11/04 12:16:59;;;;;;;2.95;2.70;;;18.10;62.70;;;;;;5073148;28;20193;-66
2021/11/04 12:19:47;;;;;;;4.07;2.70;;;18.00;62.80;;;;;;5073895;28;20174;-65
2021/11/04 12:22:24;;;;;;;4.07;2.47;;;18.00;62.90;;;;;;5073987;28;20179;-65
2021/11/04 12:24:54;;;;;;;2.65;2.45;;;18.00;62.90;;;;;;5072673;28;20196;-64
2021/11/04 12:27:29;;;;;;;6.18;2.83;;;18.10;62.90;;;;;;5073500;28;20574;-65
2021/11/04 12:29:55;;;;;;;2.38;2.17;;;18.10;62.80;;;;;;5073683;28;20178;-66
2021/11/04 12:32:26;;;;;;;5.13;2.47;;;18.20;62.90;;;;;;5072626;28;20175;-65
2021/11/04 12:34:57;;;;;;;3.15;2.60;;;18.10;62.80;;;;;;5073221;28;20183;-66
2021/11/04 12:37:25;;;;;;;4.38;2.60;;;18.10;62.90;;;;;;5073346;28;20248;-66
2021/11/04 12:39:51;;;;;;;2.70;2.50;;;18.10;62.90;;;;;;5071570;28;20174;-66
2021/11/04 12:42:17;;;;;;;3.17;2.88;;;18.00;62.80;;;;;;5073291;28;20643;-66
2021/11/04 12:44:42;;;;;;;2.92;2.45;;;18.00;62.90;;;;;;5072126;28;20214;-66
2021/11/04 12:47:08;;;;;;;2.88;2.58;;;18.00;63.10;;;;;;5073080;28;20182;-65